Weather at Frasca Field

Public forecast

Using degrees Fahrenheit for public forecast. Weather courtesy of forecast.io.

Closest aviation weather report (METAR) to Frasca Field

Closest report is University of Illinois Willard Airport, 7.4 nm (13.7 km) SSW. Retrieved 2020/11/30 10:26 UTC (6 minutes ago):

KCMI 301026Z AUTO 33020G28KT 10SM OVC030 01/M03 A2993 RMK AO2 PK WND 33028/1002 T00111033

Closest aviation forecast (TAF) to Frasca Field

Closest forecast is University of Illinois Willard Airport, 7.4 nm (13.7 km) SSW. Retrieved 2020/11/30 06:22 UTC (4 hours ago):

TAF KCMI 300520Z 3006/0106 35017G28KT P6SM -RASN OVC035 FM301100 34018G28KT P6SM OVC027 FM302200 32014KT P6SM BKN035 FM010300 32011KT P6SM SCT050